Time;durP1;ratioP1;P1;durP2;ratioP2;P2;SDS_P1;SDS_P2;PMS_P1;PMS_P2;Temp;Humidity;BMP_temperature;BMP_pressure;BME280_temperature;BME280_humidity;BME280_pressure;Samples;Min_cycle;Max_cycle;Signal;HPM_P1;HPM_P2
2021/09/12 00:02:00;;;;;;;;;;;;;;;23.02;61.46;101306.03;5055183;27;96626;-80
2021/09/12 00:04:26;;;;;;;;;;;;;;;23.07;61.17;101301.13;5058464;27;96871;-81
2021/09/12 00:06:53;;;;;;;;;;;;;;;22.94;61.43;101303.09;5052015;27;97810;-82
2021/09/12 00:09:20;;;;;;;;;;;;;;;22.86;61.56;101298.28;5057675;27;97716;-80
2021/09/12 00:11:47;;;;;;;;;;;;;;;22.90;61.99;101302.47;5058636;27;96862;-79
2021/09/12 00:14:13;;;;;;;;;;;;;;;23.01;61.61;101301.63;5059487;27;96733;-80
2021/09/12 00:16:39;;;;;;;;;;;;;;;23.02;61.40;101298.81;5057598;27;99063;-83
2021/09/12 00:19:06;;;;;;;;;;;;;;;23.06;60.78;101294.03;5058439;27;98007;-81
2021/09/12 00:21:32;;;;;;;;;;;;;;;22.95;61.21;101294.88;5059668;27;96693;-81
2021/09/12 00:23:58;;;;;;;;;;;;;;;22.87;61.72;101291.94;5059350;27;96786;-80
2021/09/12 00:26:26;;;;;;;;;;;;;;;22.97;61.17;101297.47;5057420;27;99314;-81
2021/09/12 00:28:53;;;;;;;;;;;;;;;22.94;61.48;101292.31;5057264;27;98137;-80
2021/09/12 00:31:20;;;;;;;;;;;;;;;22.88;61.56;101290.09;5055004;27;97177;-80
2021/09/12 00:33:46;;;;;;;;;;;;;;;22.96;61.26;101285.81;5059184;27;96791;-80
2021/09/12 00:36:12;;;;;;;;;;;;;;;22.94;61.10;101284.22;5060217;27;99345;-80
2021/09/12 00:38:39;;;;;;;;;;;;;;;22.96;60.69;101290.34;5059767;27;98849;-80
2021/09/12 00:41:05;;;;;;;;;;;;;;;22.98;60.64;101285.69;5063628;27;98645;-80
2021/09/12 00:43:33;;;;;;;;;;;;;;;22.84;60.95;101285.94;5073145;27;96625;-80
2021/09/12 00:46:05;;;;;;;;;;;;;;;22.84;61.18;101286.75;5066063;27;97824;-80
2021/09/12 00:48:32;;;;;;;;;;;;;;;22.88;60.78;101282.88;5069866;27;98525;-79
2021/09/12 00:50:58;;;;;;;;;;;;;;;22.83;60.62;101286.91;5080862;27;96567;-79
2021/09/12 00:53:25;;;;;;;;;;;;;;;22.84;60.43;101286.75;5077449;27;96607;-79
2021/09/12 00:55:53;;;;;;;;;;;;;;;22.79;60.16;101286.28;5076914;27;97795;-81
2021/09/12 00:58:21;;;;;;;;;;;;;;;22.63;60.91;101281.19;5070236;27;97725;-79
2021/09/12 01:00:49;;;;;;;;;;;;;;;22.70;60.53;101286.13;5067508;27;96895;-78
2021/09/12 01:03:15;;;;;;;;;;;;;;;22.60;60.49;101285.94;5061492;27;96816;-79
2021/09/12 01:05:42;;;;;;;;;;;;;;;22.66;60.52;101289.03;5054081;27;97829;-79
2021/09/12 01:08:09;;;;;;;;;;;;;;;22.65;60.71;101286.44;5071280;27;96849;-78
2021/09/12 01:10:37;;;;;;;;;;;;;;;22.69;60.47;101284.41;5071522;27;96619;-79
2021/09/12 01:13:04;;;;;;;;;;;;;;;22.67;60.23;101281.81;5067911;27;96978;-79
2021/09/12 01:15:30;;;;;;;;;;;;;;;22.67;60.19;101279.97;5064138;27;98355;-80
2021/09/12 01:17:58;;;;;;;;;;;;;;;22.72;60.15;101281.44;5071685;27;99120;-80
2021/09/12 01:20:24;;;;;;;;;;;;;;;22.76;60.06;101281.13;5077861;27;96989;-81
2021/09/12 01:22:51;;;;;;;;;;;;;;;22.69;59.85;101279.88;5074138;27;96756;-80
2021/09/12 01:25:19;;;;;;;;;;;;;;;22.66;60.02;101278.25;5072748;27;97751;-81
2021/09/12 01:27:45;;;;;;;;;;;;;;;22.70;60.03;101284.28;5062813;27;100157;-82
2021/09/12 01:30:12;;;;;;;;;;;;;;;22.62;60.30;101282.19;5058235;27;97140;-81
2021/09/12 01:32:38;;;;;;;;;;;;;;;22.61;60.35;101275.06;5054423;27;96857;-81
2021/09/12 01:35:05;;;;;;;;;;;;;;;22.61;60.41;101284.97;5056980;27;98963;-81
2021/09/12 01:37:32;;;;;;;;;;;;;;;22.65;60.13;101281.06;5054739;27;98032;-80
2021/09/12 01:39:58;;;;;;;;;;;;;;;22.62;60.19;101278.63;5058192;27;97287;-79
2021/09/12 01:42:26;;;;;;;;;;;;;;;22.56;60.00;101282.66;5061003;27;96901;-80
2021/09/12 01:44:52;;;;;;;;;;;;;;;22.56;59.93;101271.88;5059769;27;98111;-81
2021/09/12 01:47:19;;;;;;;;;;;;;;;22.55;60.03;101282.75;5059837;27;98904;-81
2021/09/12 01:49:46;;;;;;;;;;;;;;;22.56;60.13;101287.19;5059123;27;97475;-81
2021/09/12 01:52:13;;;;;;;;;;;;;;;22.44;60.27;101282.75;5066830;27;96985;-81
2021/09/12 01:54:40;;;;;;;;;;;;;;;22.37;60.55;101287.72;5063919;27;97925;-81
2021/09/12 01:57:06;;;;;;;;;;;;;;;22.36;60.41;101286.00;5062409;27;100465;-80
2021/09/12 01:59:36;;;;;;;;;;;;;;;22.40;60.56;101284.78;5058229;27;96953;-84
2021/09/12 02:02:02;;;;;;;;;;;;;;;22.43;60.32;101287.25;5055112;27;97000;-83
2021/09/12 02:04:30;;;;;;;;;;;;;;;22.40;60.14;101275.84;5060716;27;101502;-82
2021/09/12 02:06:56;;;;;;;;;;;;;;;22.37;60.44;101276.97;5053873;27;98151;-80
2021/09/12 02:09:26;;;;;;;;;;;;;;;22.39;60.12;101274.13;5052105;27;96869;-81
2021/09/12 02:11:53;;;;;;;;;;;;;;;22.32;60.30;101281.81;5052108;27;96927;-81
2021/09/12 02:14:19;;;;;;;;;;;;;;;22.23;60.06;101279.84;5053554;27;98124;-81
2021/09/12 02:16:47;;;;;;;;;;;;;;;22.36;60.11;101280.63;5049643;27;97881;-81
2021/09/12 02:19:13;;;;;;;;;;;;;;;22.32;60.24;101289.88;5057057;27;96875;-81
2021/09/12 02:21:39;;;;;;;;;;;;;;;22.32;60.31;101289.88;5055180;27;96834;-80
2021/09/12 02:24:06;;;;;;;;;;;;;;;22.22;59.94;101283.50;5054731;27;97984;-80
2021/09/12 02:26:32;;;;;;;;;;;;;;;22.32;59.90;101284.50;5055083;27;101636;-80
2021/09/12 02:28:58;;;;;;;;;;;;;;;22.33;59.76;101286.22;5058407;27;96735;-80
2021/09/12 02:31:25;;;;;;;;;;;;;;;22.40;59.28;101275.84;5055298;27;96856;-82
2021/09/12 02:33:53;;;;;;;;;;;;;;;22.19;59.82;101281.88;5064855;27;96954;-81
2021/09/12 02:36:19;;;;;;;;;;;;;;;22.32;59.64;101281.00;5050944;27;99132;-82
2021/09/12 02:38:45;;;;;;;;;;;;;;;22.17;59.70;101285.69;5054246;27;96797;-81
2021/09/12 02:41:12;;;;;;;;;;;;;;;22.16;59.47;101281.28;5068686;27;96785;-80
2021/09/12 02:43:39;;;;;;;;;;;;;;;22.16;59.67;101276.75;5060075;27;99371;-80
2021/09/12 02:46:06;;;;;;;;;;;;;;;22.08;59.54;101276.47;5056244;27;99111;-81
2021/09/12 02:48:32;;;;;;;;;;;;;;;22.04;59.55;101282.19;5060594;27;97243;-82
2021/09/12 02:51:00;;;;;;;;;;;;;;;22.12;59.68;101283.31;5060960;27;96909;-82
2021/09/12 02:53:26;;;;;;;;;;;;;;;22.24;59.18;101281.56;5057065;27;98145;-82
2021/09/12 02:55:53;;;;;;;;;;;;;;;22.18;59.25;101276.66;5055176;27;101743;-82
2021/09/12 02:58:19;;;;;;;;;;;;;;;22.04;59.69;101284.91;5044955;27;98741;-81
2021/09/12 03:00:46;;;;;;;;;;;;;;;22.13;59.40;101278.81;5057914;27;97218;-81
2021/09/12 03:03:12;;;;;;;;;;;;;;;22.11;59.36;101276.25;5047876;27;99979;-82
2021/09/12 03:05:38;;;;;;;;;;;;;;;22.11;59.59;101272.69;5052561;27;101459;-81
2021/09/12 03:08:06;;;;;;;;;;;;;;;22.18;59.42;101274.81;5046679;27;96778;-81
2021/09/12 03:10:33;;;;;;;;;;;;;;;22.15;59.23;101283.09;5051065;27;97025;-81
2021/09/12 03:12:59;;;;;;;;;;;;;;;22.12;59.10;101272.56;5060673;27;97010;-80
2021/09/12 03:15:25;;;;;;;;;;;;;;;22.10;59.38;101273.66;5061137;27;98214;-82
2021/09/12 03:17:52;;;;;;;;;;;;;;;22.10;59.08;101276.34;5071560;27;96787;-81
2021/09/12 03:20:18;;;;;;;;;;;;;;;22.13;59.04;101271.59;5067272;27;96631;-81
2021/09/12 03:22:44;;;;;;;;;;;;;;;22.17;58.98;101274.94;5057732;27;98165;-81
2021/09/12 03:25:12;;;;;;;;;;;;;;;22.08;58.83;101276.47;5056998;27;98800;-81
2021/09/12 03:27:39;;;;;;;;;;;;;;;22.12;58.77;101277.13;5057227;27;97476;-81
2021/09/12 03:30:06;;;;;;;;;;;;;;;22.03;58.74;101272.41;5058677;27;96806;-82
2021/09/12 03:32:32;;;;;;;;;;;;;;;21.98;58.96;101279.97;5058561;27;101598;-82
2021/09/12 03:34:59;;;;;;;;;;;;;;;22.00;58.93;101269.94;5059100;27;98128;-82
2021/09/12 03:37:25;;;;;;;;;;;;;;;21.95;59.12;101274.78;5058742;27;96795;-80
2021/09/12 03:39:51;;;;;;;;;;;;;;;21.94;59.10;101273.06;5056855;27;96795;-80
2021/09/12 03:42:19;;;;;;;;;;;;;;;21.87;59.34;101273.50;5057131;27;101574;-80
2021/09/12 03:44:45;;;;;;;;;;;;;;;21.93;58.89;101264.13;5052130;27;98014;-80
2021/09/12 03:47:12;;;;;;;;;;;;;;;21.91;58.90;101265.22;5043169;27;96825;-80
2021/09/12 03:49:38;;;;;;;;;;;;;;;21.95;59.06;101270.25;5054603;27;96980;-80
2021/09/12 03:52:05;;;;;;;;;;;;;;;21.97;58.75;101268.34;5057442;27;100974;-80
2021/09/12 03:54:31;;;;;;;;;;;;;;;21.82;59.16;101273.00;5059512;27;97993;-82
2021/09/12 03:56:57;;;;;;;;;;;;;;;21.81;59.38;101265.91;5057564;27;98502;-82
2021/09/12 03:59:25;;;;;;;;;;;;;;;21.91;59.18;101270.59;5062478;27;96747;-81
2021/09/12 04:01:51;;;;;;;;;;;;;;;21.79;58.81;101273.22;5056954;27;100835;-81
2021/09/12 04:04:18;;;;;;;;;;;;;;;21.85;59.42;101267.41;5057605;27;100875;-80
2021/09/12 04:06:44;;;;;;;;;;;;;;;21.76;59.03;101257.31;5045903;27;97135;-80
2021/09/12 04:09:11;;;;;;;;;;;;;;;21.78;59.11;101259.91;5055729;27;98610;-81
2021/09/12 04:11:37;;;;;;;;;;;;;;;21.83;59.05;101266.66;5056063;27;98165;-81
2021/09/12 04:14:03;;;;;;;;;;;;;;;21.88;58.78;101259.09;5054123;27;97132;-82
2021/09/12 04:16:31;;;;;;;;;;;;;;;21.87;58.75;101254.69;5068604;27;96666;-82
2021/09/12 04:18:57;;;;;;;;;;;;;;;21.88;58.59;101253.72;5065176;27;97140;-81
2021/09/12 04:21:24;;;;;;;;;;;;;;;21.80;58.70;101255.25;5053268;27;99122;-81
2021/09/12 04:23:50;;;;;;;;;;;;;;;21.73;58.79;101254.84;5056879;27;100173;-82
2021/09/12 04:26:16;;;;;;;;;;;;;;;21.73;58.82;101257.53;5057267;27;98382;-82
2021/09/12 04:28:43;;;;;;;;;;;;;;;21.52;59.47;101252.88;5058220;27;97066;-80
2021/09/12 04:31:09;;;;;;;;;;;;;;;21.58;59.35;101256.00;5042031;27;98109;-80
2021/09/12 04:33:37;;;;;;;;;;;;;;;21.61;59.50;101250.38;5054013;27;99088;-80
2021/09/12 04:36:03;;;;;;;;;;;;;;;21.77;58.92;101250.97;5046276;27;96621;-80
2021/09/12 04:38:30;;;;;;;;;;;;;;;21.72;59.07;101250.47;5061105;27;97153;-80
2021/09/12 04:40:56;;;;;;;;;;;;;;;21.72;59.17;101247.78;5057685;27;100288;-80
2021/09/12 04:43:22;;;;;;;;;;;;;;;21.82;58.28;101254.16;5062531;27;98401;-81
2021/09/12 04:45:49;;;;;;;;;;;;;;;21.76;58.90;101256.44;5066959;27;96836;-80
2021/09/12 04:48:15;;;;;;;;;;;;;;;21.73;58.87;101262.03;5070490;27;96845;-80
2021/09/12 04:50:43;;;;;;;;;;;;;;;21.74;58.84;101256.56;5066860;27;97053;-80
2021/09/12 04:53:09;;;;;;;;;;;;;;;21.72;59.08;101266.59;5071784;27;98122;-80
2021/09/12 04:55:35;;;;;;;;;;;;;;;21.72;59.03;101263.03;5079502;27;97706;-81
2021/09/12 04:58:02;;;;;;;;;;;;;;;21.68;59.11;101267.78;5082685;27;96860;-80
2021/09/12 05:00:28;;;;;;;;;;;;;;;21.67;59.17;101265.19;5066118;27;100727;-80
2021/09/12 05:02:55;;;;;;;;;;;;;;;21.75;58.97;101274.41;5077550;27;97476;-81
2021/09/12 05:05:21;;;;;;;;;;;;;;;21.81;58.92;101273.97;5057078;28;96813;-82
2021/09/12 05:07:49;;;;;;;;;;;;;;;21.77;58.82;101272.50;5064289;27;96891;-81
2021/09/12 05:10:15;;;;;;;;;;;;;;;21.78;58.98;101268.84;5055456;27;100920;-81
2021/09/12 05:12:42;;;;;;;;;;;;;;;21.85;58.69;101277.31;5050990;27;98027;-81
2021/09/12 05:15:08;;;;;;;;;;;;;;;21.84;58.83;101273.75;5056223;27;96981;-81
2021/09/12 05:17:35;;;;;;;;;;;;;;;21.90;58.73;101279.66;5053535;27;97145;-82
2021/09/12 05:20:02;;;;;;;;;;;;;;;22.01;58.35;101274.34;5059581;27;99848;-82
2021/09/12 05:22:28;;;;;;;;;;;;;;;21.96;58.16;101277.38;5060429;27;98026;-82
2021/09/12 05:24:56;;;;;;;;;;;;;;;21.99;58.05;101281.69;5061339;27;96671;-82
2021/09/12 05:27:22;;;;;;;;;;;;;;;22.02;57.95;101278.75;5060340;27;96832;-82
2021/09/12 05:29:48;;;;;;;;;;;;;;;22.19;57.29;101278.34;5059215;27;101790;-82
2021/09/12 05:32:15;;;;;;;;;;;;;;;22.08;57.96;101283.69;5057493;27;99295;-82
2021/09/12 05:34:41;;;;;;;;;;;;;;;21.98;58.02;101286.22;5061472;27;96715;-81
2021/09/12 05:37:07;;;;;;;;;;;;;;;22.34;57.36;101282.56;5061416;27;97001;-80
2021/09/12 05:39:34;;;;;;;;;;;;;;;22.49;57.01;101286.78;5055173;27;98345;-81
2021/09/12 05:42:02;;;;;;;;;;;;;;;22.53;56.40;101282.88;5048160;27;98142;-80
2021/09/12 05:44:28;;;;;;;;;;;;;;;22.54;56.52;101284.59;5059572;27;96743;-81
2021/09/12 05:46:54;;;;;;;;;;;;;;;22.43;56.34;101281.88;5060230;27;96828;-81
2021/09/12 05:49:21;;;;;;;;;;;;;;;22.56;56.20;101287.19;5051591;27;99955;-81
2021/09/12 05:51:47;;;;;;;;;;;;;;;22.44;56.42;101288.13;5059801;27;101743;-81
2021/09/12 05:54:14;;;;;;;;;;;;;;;22.53;56.46;101282.88;5057835;27;96970;-81
2021/09/12 05:56:40;;;;;;;;;;;;;;;22.45;56.53;101277.22;5059705;27;96820;-82
2021/09/12 05:59:08;;;;;;;;;;;;;;;22.67;55.91;101288.06;5045803;27;98891;-80
2021/09/12 06:01:34;;;;;;;;;;;;;;;22.61;56.15;101280.44;5053938;27;98865;-81
2021/09/12 06:04:01;;;;;;;;;;;;;;;22.75;55.65;101290.19;5060931;27;96741;-81
2021/09/12 06:06:27;;;;;;;;;;;;;;;22.73;56.07;101293.97;5060522;27;97445;-82
2021/09/12 06:08:59;;;;;;;;;;;;;;;22.70;56.25;101288.81;5057721;27;99186;-81
2021/09/12 06:11:26;;;;;;;;;;;;;;;22.71;56.34;101287.84;5061797;27;98114;-81
2021/09/12 06:13:53;;;;;;;;;;;;;;;22.89;55.82;101291.81;5058784;27;96953;-80
2021/09/12 06:16:20;;;;;;;;;;;;;;;22.76;55.99;101289.22;5060587;27;98608;-81
2021/09/12 06:18:47;;;;;;;;;;;;;;;22.86;55.82;101292.03;5057612;27;99338;-80
2021/09/12 06:21:13;;;;;;;;;;;;;;;22.61;56.10;101291.22;5059377;27;101396;-81
2021/09/12 06:23:39;;;;;;;;;;;;;;;22.24;56.95;101292.34;5057435;27;96941;-81
2021/09/12 06:26:06;;;;;;;;;;;;;;;22.44;57.13;101294.38;5061673;27;96885;-82
2021/09/12 06:28:32;;;;;;;;;;;;;;;22.90;55.77;101296.22;5062154;27;97716;-83
2021/09/12 06:30:59;;;;;;;;;;;;;;;22.87;55.82;101293.75;5066781;27;100985;-81
2021/09/12 06:33:27;;;;;;;;;;;;;;;22.44;57.19;101293.50;5065112;27;97517;-80
2021/09/12 06:35:53;;;;;;;;;;;;;;;22.78;56.68;101303.41;5061991;27;98444;-81
2021/09/12 06:38:20;;;;;;;;;;;;;;;23.11;55.80;101307.13;5061340;27;99285;-81
2021/09/12 06:40:46;;;;;;;;;;;;;;;23.03;55.60;101311.31;5063883;27;99188;-81
2021/09/12 06:43:13;;;;;;;;;;;;;;;23.30;55.35;101310.13;5060709;27;96694;-82
2021/09/12 06:45:39;;;;;;;;;;;;;;;23.61;54.46;101313.91;5058906;27;96842;-81
2021/09/12 06:48:05;;;;;;;;;;;;;;;23.42;54.74;101314.53;5057241;27;97791;-80
2021/09/12 06:50:33;;;;;;;;;;;;;;;23.64;54.34;101313.66;5056571;27;98015;-80
2021/09/12 06:52:59;;;;;;;;;;;;;;;24.01;53.25;101315.06;5058451;27;96812;-81
2021/09/12 06:55:26;;;;;;;;;;;;;;;23.66;54.33;101317.09;5057304;27;97061;-80
2021/09/12 06:57:52;;;;;;;;;;;;;;;23.82;53.74;101314.88;5040864;27;99400;-81
2021/09/12 07:00:18;;;;;;;;;;;;;;;23.69;54.08;101322.25;5058595;27;96851;-81
2021/09/12 07:02:45;;;;;;;;;;;;;;;23.93;53.46;101322.06;5059787;27;96887;-80
2021/09/12 07:05:11;;;;;;;;;;;;;;;22.98;55.56;101315.31;5061613;27;96745;-80
2021/09/12 07:07:39;;;;;;;;;;;;;;;23.62;54.36;101321.03;5068838;27;101809;-81
2021/09/12 07:10:05;;;;;;;;;;;;;;;23.80;54.30;101327.63;5063431;27;100265;-80
2021/09/12 07:12:32;;;;;;;;;;;;;;;23.89;53.68;101329.59;5071946;27;96683;-81
2021/09/12 07:14:58;;;;;;;;;;;;;;;24.01;53.60;101327.72;5069183;27;96751;-83
2021/09/12 07:17:25;;;;;;;;;;;;;;;24.00;53.53;101326.00;5068333;27;100395;-83
2021/09/12 07:19:51;;;;;;;;;;;;;;;24.06;53.45;101326.34;5066860;27;98087;-81
2021/09/12 07:25:08;;;;;;;;;;;;;;;23.99;53.56;101335.94;5081023;27;96814;-82
2021/09/12 07:27:35;;;;;;;;;;;;;;;23.80;54.18;101335.72;5056172;27;98700;-82
2021/09/12 07:30:01;;;;;;;;;;;;;;;23.89;53.63;101336.81;5054431;27;98058;-82
2021/09/12 07:32:27;;;;;;;;;;;;;;;24.34;52.92;101341.13;5059947;27;96732;-82
2021/09/12 07:34:54;;;;;;;;;;;;;;;23.96;53.81;101343.44;5058985;27;96962;-83
2021/09/12 07:37:21;;;;;;;;;;;;;;;24.03;53.83;101340.06;5060062;27;98125;-81
2021/09/12 07:39:47;;;;;;;;;;;;;;;23.95;53.68;101347.97;5057306;27;100108;-81
2021/09/12 07:42:14;;;;;;;;;;;;;;;23.98;53.86;101353.09;5061466;27;96999;-82
2021/09/12 07:44:41;;;;;;;;;;;;;;;24.00;53.88;101348.44;5059309;27;96871;-81
2021/09/12 07:47:07;;;;;;;;;;;;;;;23.94;53.68;101356.19;5065675;27;98936;-82
2021/09/12 07:49:34;;;;;;;;;;;;;;;23.93;54.04;101363.44;5057934;27;97700;-82
2021/09/12 07:52:00;;;;;;;;;;;;;;;24.11;53.69;101359.22;5059814;27;96891;-83
2021/09/12 07:54:26;;;;;;;;;;;;;;;24.13;53.67;101359.94;5057742;27;96862;-82
2021/09/12 07:56:53;;;;;;;;;;;;;;;24.22;53.68;101359.19;5058054;27;98312;-82
2021/09/12 07:59:20;;;;;;;;;;;;;;;24.14;53.50;101358.97;5058378;27;101170;-82
2021/09/12 08:01:47;;;;;;;;;;;;;;;24.28;53.25;101354.31;5058592;27;96723;-82
2021/09/12 08:04:13;;;;;;;;;;;;;;;24.52;52.95;101360.34;5058623;27;97319;-81
2021/09/12 08:06:40;;;;;;;;;;;;;;;24.29;53.28;101364.09;5055530;27;98533;-80
2021/09/12 08:09:06;;;;;;;;;;;;;;;24.08;54.12;101367.56;5056735;27;98911;-80
2021/09/12 08:11:32;;;;;;;;;;;;;;;24.27;53.71;101366.09;5055858;27;96973;-80
2021/09/12 08:13:59;;;;;;;;;;;;;;;24.26;53.64;101361.66;5055757;27;96927;-81
2021/09/12 08:16:26;;;;;;;;;;;;;;;24.62;52.91;101361.25;5057108;27;101659;-81
2021/09/12 08:18:53;;;;;;;;;;;;;;;24.66;52.91;101364.56;5056947;27;98749;-82
2021/09/12 08:21:20;;;;;;;;;;;;;;;24.59;52.89;101359.69;5057064;27;96646;-80
2021/09/12 08:23:46;;;;;;;;;;;;;;;24.63;52.85;101371.09;5058843;27;96839;-81
2021/09/12 08:26:13;;;;;;;;;;;;;;;24.59;52.30;101366.94;5052150;27;101037;-81
2021/09/12 08:28:39;;;;;;;;;;;;;;;24.70;52.42;101374.13;5052282;27;97745;-82
2021/09/12 08:31:07;;;;;;;;;;;;;;;24.45;53.35;101369.94;5062590;27;96695;-84
2021/09/12 08:33:39;;;;;;;;;;;;;;;24.71;52.68;101367.75;5077626;27;96841;-84
2021/09/12 08:36:07;;;;;;;;;;;;;;;24.68;53.32;101368.84;5077538;27;98923;-84
2021/09/12 08:38:33;;;;;;;;;;;;;;;24.69;52.53;101377.81;5058523;27;97500;-80
2021/09/12 08:41:01;;;;;;;;;;;;;;;24.86;52.16;101375.41;5050259;27;96918;-80
2021/09/12 08:43:27;;;;;;;;;;;;;;;24.93;51.85;101375.78;5052244;27;96826;-80
2021/09/12 08:45:54;;;;;;;;;;;;;;;24.93;52.28;101379.34;5056352;27;98264;-81
2021/09/12 08:48:21;;;;;;;;;;;;;;;24.74;53.07;101381.00;5061196;27;99169;-80
2021/09/12 08:50:49;;;;;;;;;;;;;;;24.63;53.01;101379.19;5055730;27;96906;-80
2021/09/12 08:53:15;;;;;;;;;;;;;;;24.61;52.63;101381.19;5057377;27;97780;-79
2021/09/12 08:55:42;;;;;;;;;;;;;;;24.58;53.20;101376.03;5060067;27;98867;-79
2021/09/12 08:58:09;;;;;;;;;;;;;;;24.94;52.98;101377.50;5055051;27;101127;-81
2021/09/12 09:00:42;;;;;;;;;;;;;;;25.06;52.20;101372.88;5055690;27;96834;-80
2021/09/12 09:03:09;;;;;;;;;;;;;;;25.31;51.79;101372.44;5060026;27;96896;-80
2021/09/12 09:05:37;;;;;;;;;;;;;;;25.47;51.19;101372.78;5050050;27;99225;-80
2021/09/12 09:08:06;;;;;;;;;;;;;;;25.71;50.50;101378.81;5055856;27;100204;-79
2021/09/12 09:10:37;;;;;;;;;;;;;;;26.11;49.69;101380.63;5053974;27;97521;-80
2021/09/12 09:13:04;;;;;;;;;;;;;;;26.20;49.17;101375.22;5056481;27;98093;-80
2021/09/12 09:15:31;;;;;;;;;;;;;;;26.31;48.83;101377.00;5054873;27;98138;-79
2021/09/12 09:17:57;;;;;;;;;;;;;;;26.16;49.00;101372.94;5056089;27;100889;-78
2021/09/12 09:20:27;;;;;;;;;;;;;;;24.73;51.70;101371.19;5062937;27;97001;-80
2021/09/12 09:22:57;;;;;;;;;;;;;;;25.31;51.13;101369.75;5060504;27;96843;-81
2021/09/12 09:25:26;;;;;;;;;;;;;;;25.73;49.98;101374.09;5069235;27;99866;-79
2021/09/12 09:28:01;;;;;;;;;;;;;;;26.10;49.42;101374.34;5073907;27;98464;-80
2021/09/12 09:30:29;;;;;;;;;;;;;;;25.94;49.35;101371.31;5069467;27;96705;-80
2021/09/12 09:33:11;;;;;;;;;;;;;;;25.84;49.84;101372.28;5059141;27;96725;-82
2021/09/12 09:35:37;;;;;;;;;;;;;;;26.09;49.38;101366.34;5052959;27;98186;-81
2021/09/12 09:38:04;;;;;;;;;;;;;;;26.25;48.61;101374.84;5053268;27;98601;-80
2021/09/12 09:40:32;;;;;;;;;;;;;;;26.20;48.83;101369.78;5058334;27;97819;-80
2021/09/12 09:42:58;;;;;;;;;;;;;;;26.28;48.53;101360.16;5055057;27;97335;-80
2021/09/12 09:45:25;;;;;;;;;;;;;;;26.31;48.28;101363.44;5058569;27;98246;-80
2021/09/12 09:47:52;;;;;;;;;;;;;;;26.80;47.31;101367.00;5056226;27;99528;-81
2021/09/12 09:50:19;;;;;;;;;;;;;;;26.87;46.76;101352.72;5056002;27;96793;-82
2021/09/12 09:52:47;;;;;;;;;;;;;;;26.66;47.48;101353.88;5060044;27;96906;-82
2021/09/12 09:55:15;;;;;;;;;;;;;;;25.57;49.77;101349.41;5058796;27;99443;-81
2021/09/12 09:57:44;;;;;;;;;;;;;;;26.29;48.65;101359.16;5059943;27;99926;-81
2021/09/12 10:00:12;;;;;;;;;;;;;;;26.74;47.53;101351.31;5058096;27;96613;-85
2021/09/12 10:02:38;;;;;;;;;;;;;;;26.98;46.41;101349.00;5066324;27;97862;-80
2021/09/12 10:05:06;;;;;;;;;;;;;;;27.19;45.61;101340.69;5062408;27;99228;-80
2021/09/12 10:07:34;;;;;;;;;;;;;;;27.33;44.90;101348.34;5039874;27;97514;-82
2021/09/12 10:10:03;;;;;;;;;;;;;;;27.23;45.22;101334.84;5042871;27;96829;-84
2021/09/12 10:12:30;;;;;;;;;;;;;;;27.38;45.45;101344.19;5045866;27;99161;-81
2021/09/12 10:14:59;;;;;;;;;;;;;;;27.50;44.90;101338.59;5043333;27;99632;-81
2021/09/12 10:17:28;;;;;;;;;;;;;;;27.59;45.08;101346.72;5039120;27;99187;-80
2021/09/12 10:20:06;;;;;;;;;;;;;;;27.42;44.96;101346.63;5039832;27;98628;-81
2021/09/12 10:22:48;;;;;;;;;;;;;;;27.43;44.90;101337.47;5038174;27;98702;-79
2021/09/12 10:25:15;;;;;;;;;;;;;;;27.27;45.98;101333.53;5042462;27;100410;-81
2021/09/12 10:27:42;;;;;;;;;;;;;;;27.21;45.80;101334.13;5038350;27;99387;-81
2021/09/12 10:30:22;;;;;;;;;;;;;;;26.80;45.81;101334.47;5042786;27;96951;-80
2021/09/12 10:32:49;;;;;;;;;;;;;;;27.25;45.36;101338.25;5044033;27;97385;-83
2021/09/12 10:35:18;;;;;;;;;;;;;;;27.28;45.14;101342.53;5042731;27;100557;-82
2021/09/12 10:38:01;;;;;;;;;;;;;;;26.88;46.47;101340.03;5045425;27;100480;-81
2021/09/12 10:40:46;;;;;;;;;;;;;;;27.28;45.31;101340.66;5045183;27;98098;-81
2021/09/12 10:43:33;;;;;;;;;;;;;;;27.32;44.74;101344.78;5044671;27;96913;-81
2021/09/12 10:46:15;;;;;;;;;;;;;;;27.53;44.62;101339.16;5042873;27;98812;-82
2021/09/12 10:48:44;;;;;;;;;;;;;;;27.79;43.75;101331.19;5045745;27;99397;-80
2021/09/12 10:51:28;;;;;;;;;;;;;;;27.73;43.55;101334.50;5050941;27;96908;-78
2021/09/12 10:54:01;;;;;;;;;;;;;;;27.69;43.89;101341.25;5053629;27;96874;-78
2021/09/12 10:56:29;;;;;;;;;;;;;;;27.02;45.11;101334.19;5053383;27;97830;-78
2021/09/12 10:58:58;;;;;;;;;;;;;;;27.06;44.86;101337.44;5052868;27;99741;-79
2021/09/12 11:01:26;;;;;;;;;;;;;;;26.76;45.75;101338.47;5055185;27;97074;-80
2021/09/12 11:03:58;;;;;;;;;;;;;;;26.91;45.41;101334.34;5040065;27;96930;-80
2021/09/12 11:06:24;;;;;;;;;;;;;;;26.65;45.84;101344.06;5052021;27;101185;-81
2021/09/12 11:08:51;;;;;;;;;;;;;;;26.80;45.82;101335.31;5039971;27;98995;-80
2021/09/12 11:11:17;;;;;;;;;;;;;;;26.61;45.56;101339.91;5047577;27;97161;-79
2021/09/12 11:13:43;;;;;;;;;;;;;;;26.43;46.33;101331.66;5049582;27;96927;-78
2021/09/12 11:16:11;;;;;;;;;;;;;;;26.78;45.79;101325.63;5054118;27;101465;-80
2021/09/12 11:18:47;;;;;;;;;;;;;;;26.90;45.27;101324.50;5042294;27;99857;-79
2021/09/12 11:21:24;;;;;;;;;;;;;;;27.11;44.70;101327.84;5043944;27;96849;-81
2021/09/12 11:23:55;;;;;;;;;;;;;;;26.99;44.39;101320.91;5044190;27;97724;-80
2021/09/12 11:26:22;;;;;;;;;;;;;;;27.28;44.04;101324.41;5048939;27;100705;-79
2021/09/12 11:29:01;;;;;;;;;;;;;;;26.98;44.15;101325.47;5055891;27;97713;-80
2021/09/12 11:31:28;;;;;;;;;;;;;;;26.96;44.98;101321.22;5043390;27;96873;-79
2021/09/12 11:33:54;;;;;;;;;;;;;;;26.86;45.07;101317.63;5054405;27;96778;-78
2021/09/12 11:36:22;;;;;;;;;;;;;;;26.85;44.87;101315.91;5056248;27;98182;-78
2021/09/12 11:38:55;;;;;;;;;;;;;;;26.84;45.38;101319.63;5056957;27;100342;-79
2021/09/12 11:41:22;;;;;;;;;;;;;;;26.30;46.54;101315.69;5063214;27;96631;-78
2021/09/12 11:43:53;;;;;;;;;;;;;;;26.95;45.23;101314.94;5066204;27;96833;-79
2021/09/12 11:46:19;;;;;;;;;;;;;;;26.65;45.73;101314.25;5072855;27;98300;-80
2021/09/12 11:48:52;;;;;;;;;;;;;;;26.95;44.33;101319.50;5075464;27;98115;-80
2021/09/12 11:51:23;;;;;;;;;;;;;;;27.00;44.23;101314.47;5065040;27;96211;-80
2021/09/12 11:54:04;;;;;;;;;;;;;;;27.06;43.88;101313.88;5073381;27;96599;-79
2021/09/12 11:56:32;;;;;;;;;;;;;;;27.22;43.70;101307.84;5054470;27;97027;-77
2021/09/12 11:59:00;;;;;;;;;;;;;;;27.61;42.97;101297.72;5055344;27;99083;-79
2021/09/12 12:01:26;;;;;;;;;;;;;;;27.91;42.21;101300.09;5054408;27;97524;-79
2021/09/12 12:03:54;;;;;;;;;;;;;;;28.09;41.94;101298.22;5049834;27;97751;-79
2021/09/12 12:06:20;;;;;;;;;;;;;;;27.67;42.32;101302.53;5053198;27;97987;-78
2021/09/12 12:09:03;;;;;;;;;;;;;;;26.73;43.78;101295.38;5060125;27;97817;-78
2021/09/12 12:11:29;;;;;;;;;;;;;;;26.99;43.60;101296.50;5060471;27;96991;-80
2021/09/12 12:13:57;;;;;;;;;;;;;;;27.56;42.42;101290.03;5055273;27;96777;-79
2021/09/12 12:16:23;;;;;;;;;;;;;;;27.83;42.17;101297.28;5040999;27;101324;-79
2021/09/12 12:19:00;;;;;;;;;;;;;;;27.43;42.43;101294.06;5051782;27;101698;-77
2021/09/12 12:21:29;;;;;;;;;;;;;;;27.81;41.90;101293.03;5047140;27;97636;-79
2021/09/12 12:23:56;;;;;;;;;;;;;;;27.66;42.11;101295.38;5047658;27;99324;-79
2021/09/12 12:26:23;;;;;;;;;;;;;;;27.46;42.69;101291.03;5052328;27;97761;-78
2021/09/12 12:28:58;;;;;;;;;;;;;;;27.91;42.12;101289.22;5060495;27;99079;-79
2021/09/12 12:31:24;;;;;;;;;;;;;;;27.94;42.21;101280.78;5050631;27;96894;-79
2021/09/12 12:33:50;;;;;;;;;;;;;;;28.24;41.26;101290.44;5054206;27;96816;-79
2021/09/12 12:36:17;;;;;;;;;;;;;;;27.98;41.88;101276.75;5054420;27;98878;-79
2021/09/12 12:38:44;;;;;;;;;;;;;;;28.28;41.45;101270.13;5048750;27;98956;-78
2021/09/12 12:41:12;;;;;;;;;;;;;;;28.39;40.92;101275.31;5048909;27;98891;-78